Time;durP1;ratioP1;P1;durP2;ratioP2;P2;SDS_P1;SDS_P2;PMS_P1;PMS_P2;Temp;Humidity;BMP_temperature;BMP_pressure;BME280_temperature;BME280_humidity;BME280_pressure;Samples;Min_cycle;Max_cycle;Signal;HPM_P1;HPM_P2
2022/06/07 00:01:16;;;;;;;9.97;7.67;;;20.60;99.90;;;;;;5050714;28;20469;-58
2022/06/07 00:03:43;;;;;;;11.77;6.97;;;20.50;99.90;;;;;;5050363;28;20507;-58
2022/06/07 00:06:10;;;;;;;9.50;7.63;;;20.50;99.90;;;;;;5050698;28;20533;-59
2022/06/07 00:08:39;;;;;;;10.07;6.87;;;20.50;99.90;;;;;;5050358;28;20508;-58
2022/06/07 00:11:06;;;;;;;14.67;6.47;;;20.60;99.90;;;;;;5050172;28;20474;-57
2022/06/07 00:13:33;;;;;;;12.70;7.90;;;20.70;99.90;;;;;;5050616;28;20503;-58
2022/06/07 00:16:00;;;;;;;11.20;7.50;;;20.70;99.90;;;;;;5050393;28;20454;-57
2022/06/07 00:18:27;;;;;;;10.40;7.97;;;20.70;99.90;;;;;;5050641;28;20458;-59
2022/06/07 00:20:54;;;;;;;10.87;7.80;;;20.50;99.90;;;;;;5050466;28;20473;-58
2022/06/07 00:23:21;;;;;;;11.00;8.20;;;20.40;99.90;;;;;;5050529;28;20806;-58
2022/06/07 00:25:52;;;;;;;10.67;8.80;;;20.40;99.90;;;;;;5050472;28;20461;-58
2022/06/07 00:28:20;;;;;;;11.40;8.93;;;20.30;99.90;;;;;;5050198;28;20453;-58
2022/06/07 00:30:48;;;;;;;11.20;8.70;;;20.20;99.90;;;;;;5050054;28;20474;-59
2022/06/07 00:33:16;;;;;;;12.83;9.63;;;20.20;99.90;;;;;;5050379;28;20486;-58
2022/06/07 00:35:43;;;;;;;11.10;8.53;;;20.10;99.90;;;;;;5050259;28;20524;-58
2022/06/07 00:38:10;;;;;;;14.20;8.73;;;20.00;99.90;;;;;;5050176;28;20790;-58
2022/06/07 00:40:38;;;;;;;10.43;8.33;;;20.00;99.90;;;;;;5049679;28;20937;-57
2022/06/07 00:43:07;;;;;;;9.47;8.47;;;20.10;99.90;;;;;;5049657;28;20476;-58
2022/06/07 00:45:36;;;;;;;11.17;8.90;;;20.20;99.90;;;;;;5049923;28;20446;-58
2022/06/07 00:48:04;;;;;;;10.50;8.10;;;20.30;99.90;;;;;;5050121;28;20446;-57
2022/06/07 00:50:39;;;;;;;12.63;8.63;;;20.30;99.90;;;;;;5050011;28;20531;-58
2022/06/07 00:53:16;;;;;;;10.33;9.17;;;20.30;99.90;;;;;;5049855;28;20489;-57
2022/06/07 00:55:43;;;;;;;10.87;8.40;;;20.30;99.90;;;;;;5049719;28;20454;-58
2022/06/07 00:58:11;;;;;;;11.10;10.00;;;20.10;99.90;;;;;;5049838;28;20450;-58
2022/06/07 01:00:38;;;;;;;12.93;8.27;;;19.90;99.90;;;;;;5049847;28;20454;-58
2022/06/07 01:03:05;;;;;;;11.53;9.33;;;19.90;99.90;;;;;;5049743;28;20779;-57
2022/06/07 01:05:32;;;;;;;11.10;8.40;;;19.90;99.90;;;;;;5049398;28;20446;-58
2022/06/07 01:10:46;;;;;;;12.03;9.03;;;20.00;99.90;;;;;;5049648;28;20456;-58
2022/06/07 01:13:17;;;;;;;13.47;8.80;;;19.70;99.90;;;;;;5049592;28;20513;-58
2022/06/07 01:15:45;;;;;;;10.50;8.23;;;19.60;99.90;;;;;;5049779;28;20532;-58
2022/06/07 01:18:12;;;;;;;11.07;9.63;;;19.70;99.90;;;;;;5049402;28;20560;-58
2022/06/07 01:20:40;;;;;;;10.93;8.77;;;19.90;99.90;;;;;;5049262;28;20458;-58
2022/06/07 01:23:09;;;;;;;13.37;11.27;;;20.00;99.90;;;;;;5049239;28;20454;-58
2022/06/07 01:25:36;;;;;;;13.93;10.90;;;19.90;99.90;;;;;;5049623;28;20454;-58
2022/06/07 01:28:04;;;;;;;12.70;10.70;;;19.50;99.90;;;;;;5049542;28;20530;-57
2022/06/07 01:30:31;;;;;;;10.57;9.53;;;19.40;99.90;;;;;;5049129;28;20462;-57
2022/06/07 01:32:58;;;;;;;10.00;8.80;;;19.40;99.90;;;;;;5049332;28;20624;-57
2022/06/07 01:35:25;;;;;;;10.47;9.07;;;19.60;99.90;;;;;;5049448;28;20458;-58
2022/06/07 01:37:52;;;;;;;12.57;9.53;;;19.70;99.90;;;;;;5049530;28;20874;-58
2022/06/07 01:43:05;;;;;;;11.07;9.33;;;19.60;99.90;;;;;;5049019;28;20792;-58
2022/06/07 01:45:32;;;;;;;11.13;9.93;;;19.30;99.90;;;;;;5049073;28;20580;-58
2022/06/07 01:47:59;;;;;;;14.20;9.83;;;19.30;99.90;;;;;;5050802;28;20461;-58
2022/06/07 01:50:26;;;;;;;11.53;10.33;;;19.50;99.90;;;;;;5053189;28;20449;-57
2022/06/07 01:52:53;;;;;;;10.97;9.87;;;19.60;99.90;;;;;;5053242;28;20562;-58
2022/06/07 01:55:22;;;;;;;17.17;10.53;;;19.50;99.90;;;;;;5052759;28;20458;-57
2022/06/07 01:57:49;;;;;;;16.50;12.83;;;19.50;99.90;;;;;;5052938;28;20453;-58
2022/06/07 02:00:16;;;;;;;14.73;12.90;;;19.30;99.90;;;;;;5053061;28;20458;-58
2022/06/07 02:02:43;;;;;;;14.90;13.23;;;19.20;99.90;;;;;;5052822;28;20519;-57
2022/06/07 02:05:11;;;;;;;18.07;13.43;;;19.30;99.90;;;;;;5053010;28;20453;-58
2022/06/07 02:07:38;;;;;;;13.37;11.97;;;19.30;99.90;;;;;;5052978;28;20450;-58
2022/06/07 02:10:06;;;;;;;15.13;11.80;;;19.30;99.90;;;;;;5052843;28;20453;-58
2022/06/07 02:12:34;;;;;;;15.10;13.57;;;19.30;99.90;;;;;;5052490;28;20546;-58
2022/06/07 02:15:03;;;;;;;13.90;12.50;;;19.50;99.90;;;;;;5052898;28;20913;-57
2022/06/07 02:17:30;;;;;;;13.87;12.10;;;19.50;99.90;;;;;;5052737;28;20531;-58
2022/06/07 02:19:57;;;;;;;14.33;12.33;;;19.40;99.90;;;;;;5052398;28;20476;-57
2022/06/07 02:22:24;;;;;;;14.37;11.10;;;19.40;99.90;;;;;;5052752;28;20560;-58
2022/06/07 02:24:51;;;;;;;14.30;12.63;;;19.30;99.90;;;;;;5052714;28;20450;-58
2022/06/07 02:27:21;;;;;;;14.43;12.40;;;19.40;99.90;;;;;;5052438;28;20504;-58
2022/06/07 02:29:52;;;;;;;13.57;12.13;;;19.50;99.90;;;;;;5053014;28;20457;-58
2022/06/07 02:32:22;;;;;;;12.43;11.13;;;19.50;99.90;;;;;;5052554;28;20580;-58
2022/06/07 02:34:53;;;;;;;13.33;11.93;;;19.60;99.90;;;;;;5052669;28;20511;-58
2022/06/07 02:37:22;;;;;;;14.67;10.57;;;19.60;99.90;;;;;;5052354;28;20453;-58
2022/06/07 02:39:49;;;;;;;13.00;11.13;;;19.70;99.90;;;;;;5052456;28;20568;-58
2022/06/07 02:42:18;;;;;;;13.17;10.97;;;19.80;99.90;;;;;;5052271;28;20824;-58
2022/06/07 02:44:45;;;;;;;12.43;11.10;;;19.80;99.90;;;;;;5051825;28;20559;-57
2022/06/07 02:47:13;;;;;;;15.37;12.13;;;19.80;99.90;;;;;;5052404;28;20544;-58
2022/06/07 02:49:40;;;;;;;12.90;11.10;;;19.50;99.90;;;;;;5052006;28;20578;-58
2022/06/07 02:52:09;;;;;;;15.13;11.70;;;19.40;99.90;;;;;;5051908;28;20563;-58
2022/06/07 02:54:36;;;;;;;11.53;10.40;;;19.70;99.90;;;;;;5052167;28;20537;-58
2022/06/07 02:57:03;;;;;;;11.30;10.10;;;19.80;99.90;;;;;;5051674;28;20461;-58
2022/06/07 02:59:30;;;;;;;10.53;9.43;;;19.90;99.90;;;;;;5050791;28;20876;-58
2022/06/07 03:01:58;;;;;;;12.07;9.67;;;19.90;99.90;;;;;;5051922;28;20879;-58
2022/06/07 03:04:26;;;;;;;13.33;9.40;;;19.90;99.90;;;;;;5052035;28;20449;-58
2022/06/07 03:06:53;;;;;;;12.43;8.10;;;19.90;99.90;;;;;;5051971;28;20449;-58
2022/06/07 03:09:20;;;;;;;10.17;8.23;;;20.00;99.90;;;;;;5051788;28;20957;-58
2022/06/07 03:11:48;;;;;;;12.70;8.90;;;20.00;99.90;;;;;;5051714;28;20473;-58
2022/06/07 03:14:15;;;;;;;14.53;11.17;;;20.10;99.90;;;;;;5051663;28;20533;-58
2022/06/07 03:16:42;;;;;;;15.83;12.20;;;20.10;99.90;;;;;;5051409;28;20540;-57
2022/06/07 03:19:09;;;;;;;13.10;10.33;;;20.10;99.90;;;;;;5051642;28;20461;-58
2022/06/07 03:21:39;;;;;;;12.00;10.73;;;20.10;99.90;;;;;;5051507;28;20883;-59
2022/06/07 03:24:07;;;;;;;14.83;12.23;;;20.00;99.90;;;;;;5051510;28;20449;-58
2022/06/07 03:26:34;;;;;;;13.87;12.40;;;20.10;99.90;;;;;;5051770;28;21248;-58
2022/06/07 03:29:01;;;;;;;16.53;13.30;;;20.00;99.90;;;;;;5051517;28;20454;-58
2022/06/07 03:31:28;;;;;;;19.17;13.70;;;19.90;99.90;;;;;;5051039;28;20868;-58
2022/06/07 03:33:55;;;;;;;18.37;14.10;;;20.00;99.90;;;;;;5050772;28;20493;-58
2022/06/07 03:36:24;;;;;;;15.03;13.33;;;20.00;99.90;;;;;;5051277;28;20855;-58
2022/06/07 03:38:55;;;;;;;15.70;14.10;;;20.00;99.90;;;;;;5051231;28;20450;-59
2022/06/07 03:41:24;;;;;;;20.33;13.93;;;20.00;99.90;;;;;;5051121;28;20478;-58
2022/06/07 03:43:52;;;;;;;15.80;14.20;;;20.10;99.90;;;;;;5051122;28;20844;-59
2022/06/07 03:46:21;;;;;;;19.67;14.20;;;20.10;99.90;;;;;;5050960;28;21014;-58
2022/06/07 03:48:49;;;;;;;15.57;13.97;;;20.20;99.90;;;;;;5051172;28;20450;-58
2022/06/07 03:51:18;;;;;;;21.30;15.03;;;20.10;99.90;;;;;;5051008;28;20519;-59
2022/06/07 03:53:46;;;;;;;14.97;13.43;;;20.20;99.90;;;;;;5051040;28;20848;-59
2022/06/07 03:56:14;;;;;;;16.83;12.73;;;20.10;99.90;;;;;;5051213;28;20946;-59
2022/06/07 03:58:42;;;;;;;14.23;12.20;;;20.10;99.90;;;;;;5050723;28;20527;-58
2022/06/07 04:01:13;;;;;;;14.10;12.40;;;20.20;99.90;;;;;;5050591;28;21040;-58
2022/06/07 04:03:42;;;;;;;17.87;14.67;;;20.20;99.90;;;;;;5050829;28;20453;-58
2022/06/07 04:06:18;;;;;;;18.20;15.90;;;20.10;99.90;;;;;;5050712;28;20489;-58
2022/06/07 04:08:45;;;;;;;23.13;15.90;;;20.10;99.90;;;;;;5050679;28;20489;-58
2022/06/07 04:11:14;;;;;;;22.37;15.90;;;20.10;99.90;;;;;;5050050;28;20576;-58
2022/06/07 04:13:41;;;;;;;21.30;15.57;;;20.20;99.90;;;;;;5050377;28;20851;-59
2022/06/07 04:16:10;;;;;;;19.83;15.47;;;20.40;99.90;;;;;;5050643;28;20949;-59
2022/06/07 04:18:37;;;;;;;17.40;15.20;;;20.50;99.90;;;;;;5050614;28;20594;-58
2022/06/07 04:21:05;;;;;;;17.70;13.90;;;20.60;99.90;;;;;;5050406;28;20478;-58
2022/06/07 04:23:33;;;;;;;17.40;13.70;;;20.60;99.90;;;;;;5050275;28;20456;-58
2022/06/07 04:26:07;;;;;;;17.27;13.70;;;20.70;99.90;;;;;;5050237;28;20461;-57
2022/06/07 04:28:36;;;;;;;16.43;12.60;;;20.60;99.90;;;;;;5050392;28;20812;-58
2022/06/07 04:31:03;;;;;;;17.47;13.37;;;20.60;99.90;;;;;;5050304;28;20477;-58
2022/06/07 04:33:30;;;;;;;20.37;14.20;;;20.70;99.90;;;;;;5050345;28;20498;-58
2022/06/07 04:35:57;;;;;;;17.47;12.90;;;20.80;99.90;;;;;;5050433;28;20449;-58
2022/06/07 04:38:24;;;;;;;14.77;12.90;;;20.80;99.90;;;;;;5050212;28;20453;-58
2022/06/07 04:40:51;;;;;;;15.80;11.97;;;20.90;99.90;;;;;;5049879;28;20474;-58
2022/06/07 04:43:18;;;;;;;13.20;11.80;;;20.90;99.90;;;;;;5049825;28;20846;-59
2022/06/07 04:45:48;;;;;;;17.33;13.10;;;20.90;99.90;;;;;;5050323;28;20457;-58
2022/06/07 04:48:16;;;;;;;16.37;12.33;;;21.00;99.90;;;;;;5050071;28;20450;-58
2022/06/07 04:50:44;;;;;;;17.70;12.20;;;21.00;99.90;;;;;;5049712;28;20974;-58
2022/06/07 04:53:11;;;;;;;16.83;12.13;;;21.00;99.90;;;;;;5049909;28;20516;-58
2022/06/07 04:55:39;;;;;;;17.63;14.00;;;21.10;99.90;;;;;;5050030;28;20461;-58
2022/06/07 04:58:06;;;;;;;19.07;17.07;;;21.10;99.90;;;;;;5049477;28;20539;-58
2022/06/07 05:00:33;;;;;;;19.93;16.90;;;21.20;99.90;;;;;;5049857;28;20935;-57
2022/06/07 05:03:01;;;;;;;19.77;17.00;;;21.20;99.90;;;;;;5049621;28;20496;-58
2022/06/07 05:05:29;;;;;;;20.70;18.20;;;21.20;99.90;;;;;;5049598;28;20446;-58
2022/06/07 05:07:56;;;;;;;21.33;16.80;;;21.10;99.90;;;;;;5049753;28;20595;-59
2022/06/07 05:10:23;;;;;;;22.43;18.50;;;21.20;99.90;;;;;;5049522;28;20450;-57
2022/06/07 05:12:50;;;;;;;21.27;19.00;;;21.30;99.90;;;;;;5049483;28;20489;-58
2022/06/07 05:15:17;;;;;;;21.23;19.03;;;21.40;99.90;;;;;;5049621;28;20792;-57
2022/06/07 05:17:47;;;;;;;21.47;17.70;;;21.40;99.90;;;;;;5049279;28;20450;-58
2022/06/07 05:20:15;;;;;;;19.50;17.40;;;21.40;99.90;;;;;;5049565;28;20458;-58
2022/06/07 05:22:42;;;;;;;21.77;16.90;;;21.40;99.90;;;;;;5048838;28;20493;-58
2022/06/07 05:25:10;;;;;;;21.83;19.40;;;21.40;99.90;;;;;;5049105;28;20508;-58
2022/06/07 05:27:41;;;;;;;21.10;17.30;;;21.40;99.90;;;;;;5049668;28;20807;-58
2022/06/07 05:30:10;;;;;;;20.90;16.13;;;21.40;99.90;;;;;;5049123;28;20454;-58
2022/06/07 05:32:37;;;;;;;22.03;17.73;;;21.50;99.90;;;;;;5048957;28;20930;-58
2022/06/07 05:35:05;;;;;;;22.07;18.90;;;21.60;99.90;;;;;;5049541;28;20505;-58
2022/06/07 05:37:34;;;;;;;20.23;18.10;;;21.60;99.90;;;;;;5049263;28;20511;-58
2022/06/07 05:40:03;;;;;;;22.80;18.20;;;21.60;99.90;;;;;;5049357;28;20462;-58
2022/06/07 05:42:30;;;;;;;19.37;16.60;;;21.60;99.90;;;;;;5049298;28;20481;-58
2022/06/07 05:44:58;;;;;;;20.93;18.27;;;21.50;99.90;;;;;;5048867;28;20492;-59
2022/06/07 05:47:25;;;;;;;23.50;17.90;;;21.50;99.90;;;;;;5049268;28;20540;-59
2022/06/07 05:49:52;;;;;;;24.67;17.37;;;21.50;99.90;;;;;;5049035;28;20789;-59
2022/06/07 05:52:20;;;;;;;17.73;15.80;;;21.50;99.90;;;;;;5049181;28;20469;-57
2022/06/07 05:54:48;;;;;;;19.60;17.50;;;21.60;99.90;;;;;;5049038;28;20485;-59
2022/06/07 05:57:15;;;;;;;20.17;17.80;;;21.60;99.90;;;;;;5049385;28;20596;-59
2022/06/07 05:59:42;;;;;;;19.83;16.63;;;21.60;99.90;;;;;;5049192;28;20446;-58
2022/06/07 06:02:10;;;;;;;17.40;14.73;;;21.60;99.90;;;;;;5048869;28;20492;-65
2022/06/07 06:04:37;;;;;;;18.53;16.07;;;21.80;99.90;;;;;;5048946;28;20942;-61
2022/06/07 06:07:05;;;;;;;19.93;16.20;;;21.80;99.90;;;;;;5049106;28;20449;-61
2022/06/07 06:12:19;;;;;;;20.73;17.10;;;22.00;99.90;;;;;;5048614;28;20461;-61
2022/06/07 06:14:48;;;;;;;25.50;17.07;;;22.20;99.90;;;;;;5049015;28;20656;-61
2022/06/07 06:17:15;;;;;;;18.93;15.40;;;22.50;99.90;;;;;;5048988;28;20465;-61
2022/06/07 06:19:42;;;;;;;22.30;18.30;;;22.80;99.90;;;;;;5048984;28;20454;-60
2022/06/07 06:22:09;;;;;;;19.40;16.60;;;22.90;99.90;;;;;;5048918;28;20470;-60
2022/06/07 06:24:36;;;;;;;21.47;17.20;;;23.00;99.90;;;;;;5048830;28;20461;-61
2022/06/07 06:27:03;;;;;;;19.80;17.00;;;22.80;99.90;;;;;;5048984;28;20507;-60
2022/06/07 06:29:32;;;;;;;21.60;17.60;;;22.70;99.90;;;;;;5048902;28;20450;-60
2022/06/07 06:31:59;;;;;;;20.60;17.27;;;22.60;99.90;;;;;;5048608;28;21027;-61
2022/06/07 06:34:29;;;;;;;21.53;17.33;;;22.70;99.90;;;;;;5050896;28;20489;-62
2022/06/07 06:36:57;;;;;;;20.43;18.40;;;22.90;99.90;;;;;;5052398;28;20450;-60
2022/06/07 06:39:24;;;;;;;22.77;18.03;;;22.90;99.90;;;;;;5052341;28;20509;-61
2022/06/07 06:41:51;;;;;;;20.07;16.40;;;22.90;99.90;;;;;;5052147;28;20474;-61
2022/06/07 06:44:18;;;;;;;20.80;17.30;;;23.00;99.90;;;;;;5052022;28;20986;-61
2022/06/07 06:46:48;;;;;;;19.03;16.97;;;23.20;99.90;;;;;;5052423;28;20507;-60
2022/06/07 06:49:18;;;;;;;21.00;17.00;;;23.40;99.90;;;;;;5051729;28;20446;-61
2022/06/07 06:51:45;;;;;;;21.20;18.87;;;23.60;99.90;;;;;;5052088;28;20474;-62
2022/06/07 06:54:14;;;;;;;18.73;16.77;;;23.60;99.90;;;;;;5052207;28;20923;-61
2022/06/07 06:56:41;;;;;;;20.27;18.17;;;23.70;99.90;;;;;;5052175;28;20450;-60
2022/06/07 06:59:09;;;;;;;19.07;17.07;;;23.60;99.90;;;;;;5051687;28;20863;-60
2022/06/07 07:01:38;;;;;;;17.47;15.67;;;23.70;99.90;;;;;;5051992;28;20516;-61
2022/06/07 07:04:09;;;;;;;17.93;16.10;;;23.90;99.90;;;;;;5051745;28;20460;-63
2022/06/07 07:06:37;;;;;;;19.20;17.10;;;24.00;99.90;;;;;;5051980;28;20484;-63
2022/06/07 07:09:05;;;;;;;18.43;16.17;;;24.20;99.90;;;;;;5051661;28;20456;-62
2022/06/07 07:11:35;;;;;;;19.60;17.70;;;24.10;99.90;;;;;;5051718;28;20977;-62
2022/06/07 07:14:03;;;;;;;16.50;14.77;;;24.30;99.90;;;;;;5051811;28;20493;-62
2022/06/07 07:16:32;;;;;;;20.10;14.67;;;24.20;99.90;;;;;;5051576;28;20848;-60
2022/06/07 07:18:59;;;;;;;16.27;14.30;;;24.40;99.90;;;;;;5051639;28;20890;-60
2022/06/07 07:21:33;;;;;;;15.17;13.10;;;24.70;99.90;;;;;;5051454;28;20481;-61
2022/06/07 07:24:01;;;;;;;15.00;13.40;;;25.00;99.90;;;;;;5051864;28;20543;-61
2022/06/07 07:26:30;;;;;;;16.83;15.13;;;25.30;99.90;;;;;;5051590;28;20854;-60
2022/06/07 07:28:58;;;;;;;15.53;14.13;;;25.40;99.90;;;;;;5051484;28;20450;-63
2022/06/07 07:31:31;;;;;;;14.57;12.50;;;25.50;99.90;;;;;;5051382;28;20470;-62
2022/06/07 07:33:58;;;;;;;14.50;12.27;;;25.60;99.90;;;;;;5051303;28;21105;-60
2022/06/07 07:36:26;;;;;;;14.03;11.20;;;25.60;99.90;;;;;;5051536;28;20465;-61
2022/06/07 07:38:56;;;;;;;12.50;10.53;;;25.70;99.90;;;;;;5051736;28;20854;-61
2022/06/07 07:41:25;;;;;;;12.23;11.00;;;25.90;99.90;;;;;;5051391;28;20474;-60
2022/06/07 07:43:54;;;;;;;12.60;11.10;;;26.10;99.90;;;;;;5050783;28;20563;-61
2022/06/07 07:46:24;;;;;;;12.47;9.83;;;26.10;99.90;;;;;;5050381;28;20839;-61
2022/06/07 07:48:51;;;;;;;12.33;9.70;;;26.00;99.90;;;;;;5051267;28;20450;-60
2022/06/07 07:51:20;;;;;;;10.97;8.93;;;26.10;99.90;;;;;;5051013;28;20478;-61
2022/06/07 07:53:48;;;;;;;11.07;9.87;;;26.20;99.90;;;;;;5050875;28;20489;-61
2022/06/07 07:56:17;;;;;;;9.83;8.73;;;26.40;99.90;;;;;;5050637;28;20458;-61
2022/06/07 07:58:45;;;;;;;11.13;8.57;;;26.50;99.90;;;;;;5050579;28;20458;-61
2022/06/07 08:01:14;;;;;;;10.17;9.13;;;26.50;99.90;;;;;;5050720;28;20820;-61
2022/06/07 08:03:43;;;;;;;10.50;8.00;;;26.60;99.90;;;;;;5050806;28;20461;-61
2022/06/07 08:06:15;;;;;;;10.37;7.90;;;26.70;99.90;;;;;;5050761;28;20496;-61
2022/06/07 08:08:43;;;;;;;12.63;7.50;;;26.90;99.90;;;;;;5050483;28;20942;-60
2022/06/07 08:11:10;;;;;;;13.50;7.13;;;27.00;99.90;;;;;;5050406;28;20852;-61
2022/06/07 08:13:38;;;;;;;11.67;6.40;;;26.80;99.90;;;;;;5050500;28;20935;-62
2022/06/07 08:16:07;;;;;;;9.03;7.40;;;26.70;99.90;;;;;;5050628;28;20519;-61
2022/06/07 08:18:35;;;;;;;7.43;5.93;;;26.70;99.90;;;;;;5050773;28;20537;-59
2022/06/07 08:21:05;;;;;;;7.17;6.13;;;26.80;99.90;;;;;;5050494;28;20473;-60
2022/06/07 08:23:32;;;;;;;8.50;6.57;;;27.00;99.90;;;;;;5050509;28;20859;-58
2022/06/07 08:26:01;;;;;;;7.93;7.07;;;27.20;99.90;;;;;;5050361;28;20865;-58
2022/06/07 08:28:28;;;;;;;9.07;7.07;;;27.50;99.90;;;;;;5050307;28;20446;-59
2022/06/07 08:30:57;;;;;;;7.50;4.83;;;27.80;99.90;;;;;;5050204;28;20527;-58
2022/06/07 08:38:55;;;;;;;5.53;4.33;;;27.40;99.90;;;;;;5049786;28;20421;-59
2022/06/07 08:41:25;;;;;;;8.67;4.03;;;27.50;99.90;;;;;;5050192;28;20462;-58
2022/06/07 08:43:53;;;;;;;9.00;5.17;;;27.30;99.80;;;;;;5049738;28;20551;-57
2022/06/07 08:46:28;;;;;;;8.80;4.70;;;27.30;99.90;;;;;;5050206;28;20503;-60
2022/06/07 08:48:55;;;;;;;6.67;5.47;;;27.30;99.90;;;;;;5050038;28;20499;-59
2022/06/07 08:51:26;;;;;;;6.03;4.50;;;27.50;99.90;;;;;;5049867;28;20527;-58
2022/06/07 08:53:56;;;;;;;7.33;4.87;;;27.80;99.90;;;;;;5049299;28;20984;-60
2022/06/07 08:56:27;;;;;;;9.00;5.50;;;27.80;99.90;;;;;;5049785;28;20836;-59
2022/06/07 08:58:59;;;;;;;5.63;4.70;;;27.90;99.90;;;;;;5049390;28;20974;-59
2022/06/07 09:01:32;;;;;;;5.27;4.00;;;28.10;99.90;;;;;;5049757;28;20548;-58
2022/06/07 09:04:14;;;;;;;5.30;3.20;;;28.40;99.10;;;;;;5049796;28;20845;-59
2022/06/07 09:06:44;;;;;;;5.23;2.70;;;28.50;95.10;;;;;;5049753;28;20454;-59
2022/06/07 09:09:12;;;;;;;5.20;2.70;;;28.60;93.20;;;;;;5049251;28;20881;-59
2022/06/07 09:14:31;;;;;;;6.83;4.37;;;28.90;91.10;;;;;;5049256;28;21023;-59
2022/06/07 09:17:01;;;;;;;5.80;4.23;;;29.00;91.80;;;;;;5049688;28;20501;-58
2022/06/07 09:19:31;;;;;;;6.43;4.43;;;29.10;91.60;;;;;;5049352;28;20826;-58
2022/06/07 09:22:01;;;;;;;5.73;4.10;;;29.20;92.20;;;;;;5049196;28;20478;-58
2022/06/07 09:24:32;;;;;;;5.00;3.90;;;29.40;92.20;;;;;;5049175;28;20454;-59
2022/06/07 09:27:12;;;;;;;7.90;4.23;;;29.50;92.10;;;;;;5049466;28;20503;-58
2022/06/07 09:29:41;;;;;;;5.80;4.77;;;29.60;91.50;;;;;;5049353;28;20507;-58
2022/06/07 09:32:17;;;;;;;9.60;4.60;;;29.80;92.10;;;;;;5049147;28;20478;-59
2022/06/07 09:34:58;;;;;;;5.60;3.77;;;29.60;88.40;;;;;;5048952;28;20496;-59
2022/06/07 09:37:30;;;;;;;5.87;4.10;;;29.50;90.20;;;;;;5049285;28;20446;-59
2022/06/07 09:40:10;;;;;;;5.90;5.00;;;29.60;91.10;;;;;;5049375;28;20458;-59
2022/06/07 09:42:37;;;;;;;7.30;5.40;;;29.50;87.20;;;;;;5048969;28;20473;-58
2022/06/07 09:45:20;;;;;;;9.10;4.67;;;29.20;88.90;;;;;;5048895;28;20482;-59
2022/06/07 09:47:48;;;;;;;5.87;4.90;;;29.10;90.50;;;;;;5049362;28;20632;-59
2022/06/07 09:50:21;;;;;;;5.40;4.60;;;29.00;90.00;;;;;;5049317;28;20461;-58
2022/06/07 09:52:50;;;;;;;6.87;4.73;;;29.20;92.20;;;;;;5049452;28;20454;-59
2022/06/07 09:55:32;;;;;;;7.07;5.20;;;29.50;92.00;;;;;;5048641;28;20510;-59
2022/06/07 09:58:13;;;;;;;5.33;4.53;;;29.80;91.50;;;;;;5049124;28;20464;-58
2022/06/07 10:00:49;;;;;;;6.17;4.97;;;30.20;91.10;;;;;;5049191;28;20449;-58
2022/06/07 10:03:41;;;;;;;6.27;4.90;;;30.30;90.60;;;;;;5049106;28;20511;-58
2022/06/07 10:06:27;;;;;;;7.83;5.03;;;30.30;90.60;;;;;;5048984;28;20506;-59
2022/06/07 10:09:15;;;;;;;5.80;4.43;;;30.10;90.70;;;;;;5050534;28;20812;-59
2022/06/07 10:11:53;;;;;;;5.97;4.43;;;30.40;91.30;;;;;;5052904;28;20480;-59
2022/06/07 10:14:36;;;;;;;6.63;4.93;;;30.60;91.00;;;;;;5052488;28;20453;-58
2022/06/07 10:17:29;;;;;;;5.90;5.13;;;30.80;90.40;;;;;;5052922;28;20442;-58
2022/06/07 10:20:07;;;;;;;6.80;5.17;;;30.60;87.20;;;;;;5052405;28;20458;-58
2022/06/07 10:22:49;;;;;;;8.83;4.70;;;30.80;86.80;;;;;;5052392;28;21000;-57
2022/06/07 10:25:20;;;;;;;9.10;4.90;;;31.00;88.80;;;;;;5052667;28;20476;-59
2022/06/07 10:27:56;;;;;;;6.07;5.20;;;31.00;88.30;;;;;;5052532;28;20571;-60
2022/06/07 10:30:32;;;;;;;6.30;5.20;;;31.20;86.70;;;;;;5052357;28;20453;-59
2022/06/07 10:33:17;;;;;;;6.47;4.90;;;31.40;85.00;;;;;;5052403;28;20548;-57
2022/06/07 10:35:55;;;;;;;6.47;4.77;;;31.30;83.40;;;;;;5052516;28;20485;-58
2022/06/07 10:38:36;;;;;;;9.97;5.53;;;31.20;84.10;;;;;;5051917;28;20457;-59
2022/06/07 10:41:13;;;;;;;6.80;4.90;;;31.50;85.40;;;;;;5052110;28;20799;-59
2022/06/07 10:43:50;;;;;;;6.43;4.30;;;31.80;82.70;;;;;;5052026;28;20969;-57
2022/06/07 10:46:20;;;;;;;5.40;3.90;;;31.70;82.30;;;;;;5052273;28;20458;-58
2022/06/07 10:48:57;;;;;;;6.07;4.40;;;31.70;84.80;;;;;;5052603;28;20446;-58
2022/06/07 10:54:20;;;;;;;7.40;4.80;;;31.40;79.60;;;;;;5052063;28;20508;-60
2022/06/07 10:56:54;;;;;;;5.77;4.40;;;31.40;79.40;;;;;;5052266;28;20563;-62
2022/06/07 10:59:23;;;;;;;7.17;5.20;;;31.30;80.00;;;;;;5052126;28;20469;-60
2022/06/07 11:01:55;;;;;;;7.50;4.87;;;31.10;81.30;;;;;;5051949;28;20474;-63
2022/06/07 11:10:09;;;;;;;7.97;4.73;;;31.00;76.60;;;;;;5051665;28;20830;-61
2022/06/07 11:12:43;;;;;;;6.90;4.70;;;30.90;80.50;;;;;;5051647;28;20469;-61
2022/06/07 11:15:19;;;;;;;8.03;4.57;;;30.90;80.40;;;;;;5051631;28;20535;-61
2022/06/07 11:17:49;;;;;;;6.60;4.83;;;31.10;80.80;;;;;;5052057;28;20445;-61
2022/06/07 11:20:19;;;;;;;7.30;5.03;;;31.20;80.70;;;;;;5050860;28;20538;-62
2022/06/07 11:23:06;;;;;;;8.50;5.00;;;31.20;77.80;;;;;;5051826;28;20454;-61
2022/06/07 11:25:36;;;;;;;6.60;5.50;;;31.20;77.50;;;;;;5051574;28;20450;-61
2022/06/07 11:28:11;;;;;;;6.37;5.30;;;31.00;79.10;;;;;;5051674;28;20454;-60
2022/06/07 11:30:49;;;;;;;6.00;4.70;;;30.90;80.60;;;;;;5051457;28;20503;-61
2022/06/07 11:33:38;;;;;;;5.40;4.47;;;30.90;80.80;;;;;;5051152;28;20529;-62
2022/06/07 11:36:36;;;;;;;8.30;5.10;;;31.00;75.20;;;;;;5051234;28;20493;-61
2022/06/07 11:39:22;;;;;;;7.30;4.47;;;30.70;74.60;;;;;;5051464;28;20532;-60
2022/06/07 11:41:52;;;;;;;5.90;4.47;;;30.30;75.90;;;;;;5051248;28;20489;-61
2022/06/07 11:44:55;;;;;;;8.20;4.97;;;30.00;77.80;;;;;;5050551;28;21016;-61
2022/06/07 11:47:29;;;;;;;5.67;4.20;;;30.10;80.30;;;;;;5051297;28;20446;-60
2022/06/07 11:50:00;;;;;;;7.30;6.50;;;30.10;78.70;;;;;;5051053;28;20830;-62
2022/06/07 11:52:30;;;;;;;6.80;5.10;;;30.00;80.30;;;;;;5050883;28;20478;-61
2022/06/07 11:55:07;;;;;;;6.03;5.30;;;29.80;81.90;;;;;;5050906;28;20489;-62
2022/06/07 11:57:37;;;;;;;5.67;4.60;;;29.80;83.30;;;;;;5051094;28;20485;-61
2022/06/07 12:00:38;;;;;;;6.53;4.50;;;29.90;82.30;;;;;;5050993;28;20458;-61
2022/06/07 12:03:33;;;;;;;5.83;4.93;;;30.20;80.90;;;;;;5051056;28;20840;-61
2022/06/07 12:06:19;;;;;;;7.63;4.47;;;30.50;79.80;;;;;;5050766;28;20496;-61
2022/06/07 12:08:54;;;;;;;6.77;4.50;;;30.90;78.50;;;;;;5049891;28;20550;-61
2022/06/07 12:11:24;;;;;;;6.70;4.90;;;31.20;77.40;;;;;;5050779;28;21008;-62
2022/06/07 12:14:02;;;;;;;5.80;4.20;;;31.50;76.60;;;;;;5050728;28;20446;-62
2022/06/07 12:16:37;;;;;;;4.70;3.30;;;31.70;74.90;;;;;;5050628;28;20489;-62
2022/06/07 12:19:06;;;;;;;5.50;4.47;;;32.10;74.30;;;;;;5050567;28;20453;-63
2022/06/07 12:21:40;;;;;;;7.27;6.10;;;32.20;73.20;;;;;;5050354;28;21334;-62
2022/06/07 12:24:14;;;;;;;8.00;4.10;;;32.30;72.80;;;;;;5050808;28;20792;-60
2022/06/07 12:26:45;;;;;;;7.03;3.90;;;32.40;69.10;;;;;;5050628;28;20803;-60
2022/06/07 12:29:18;;;;;;;4.90;3.70;;;32.30;67.30;;;;;;5050397;28;20461;-60
2022/06/07 12:31:48;;;;;;;5.53;3.50;;;32.40;68.90;;;;;;5049751;28;20894;-60
2022/06/07 12:34:19;;;;;;;5.60;3.83;;;32.70;68.50;;;;;;5050120;28;20874;-61
2022/06/07 12:36:53;;;;;;;5.80;3.57;;;32.90;68.60;;;;;;5050182;28;21389;-60
2022/06/07 12:39:21;;;;;;;5.93;4.33;;;32.90;67.70;;;;;;5049545;28;20449;-60
2022/06/07 12:41:53;;;;;;;7.73;4.13;;;33.10;64.50;;;;;;5049879;28;20552;-60
2022/06/07 12:44:28;;;;;;;7.90;3.97;;;33.30;64.20;;;;;;5049833;28;20525;-60
2022/06/07 12:46:56;;;;;;;5.60;3.70;;;33.50;62.70;;;;;;5049679;28;20540;-61
2022/06/07 12:49:26;;;;;;;6.43;4.03;;;33.90;66.50;;;;;;5050166;28;20457;-60
2022/06/07 12:51:56;;;;;;;5.80;5.00;;;34.00;65.40;;;;;;5050016;28;20478;-61
2022/06/07 12:54:24;;;;;;;6.90;3.93;;;33.70;63.20;;;;;;5049838;28;20457;-61
2022/06/07 12:56:54;;;;;;;8.00;4.43;;;33.40;62.60;;;;;;5049861;28;20496;-60
2022/06/07 12:59:30;;;;;;;6.40;4.10;;;32.90;61.50;;;;;;5049979;28;20461;-61
2022/06/07 13:01:58;;;;;;;5.53;4.57;;;32.60;62.90;;;;;;5049926;28;20469;-61
2022/06/07 13:04:32;;;;;;;7.80;4.13;;;32.60;61.50;;;;;;5049713;28;20456;-60
2022/06/07 13:07:02;;;;;;;10.63;9.70;;;32.80;62.90;;;;;;5049655;28;20941;-61
2022/06/07 13:09:30;;;;;;;5.33;4.07;;;33.00;62.90;;;;;;5049790;28;20458;-61
2022/06/07 13:11:59;;;;;;;5.23;3.50;;;33.30;62.50;;;;;;5049517;28;20470;-61
2022/06/07 13:14:26;;;;;;;6.60;3.80;;;33.50;62.20;;;;;;5049776;28;20449;-60
2022/06/07 13:16:54;;;;;;;5.40;3.57;;;33.70;60.60;;;;;;5049724;28;20489;-61